createdAt,value
2022-08-18T00:02:25.014Z,67.40
2022-08-18T00:04:57.973Z,68.50
2022-08-18T00:07:32.198Z,68.10
2022-08-18T00:10:01.427Z,68.80
2022-08-18T00:12:40.621Z,68.90
2022-08-18T00:15:12.092Z,69.50
2022-08-18T00:17:39.421Z,69.30
2022-08-18T00:20:16.056Z,69.60
2022-08-18T00:22:43.236Z,69.90
2022-08-18T00:25:13.556Z,69.90
2022-08-18T00:27:41.475Z,70.30
2022-08-18T00:30:19.378Z,70.50
2022-08-18T00:32:57.136Z,70.70
2022-08-18T00:35:32.942Z,70.80
2022-08-18T00:38:02.708Z,71.00
2022-08-18T00:40:38.266Z,71.20
2022-08-18T00:43:08.572Z,71.30
2022-08-18T00:45:39.317Z,71.90
2022-08-18T00:48:10.338Z,71.30
2022-08-18T00:51:03.509Z,71.50
2022-08-18T00:53:47.793Z,71.30
2022-08-18T00:56:25.516Z,71.80
2022-08-18T00:59:01.098Z,71.70
2022-08-18T01:01:33.002Z,71.60
2022-08-18T01:04:17.568Z,71.50
2022-08-18T01:06:54.953Z,71.10
2022-08-18T01:09:22.566Z,71.30
2022-08-18T01:11:51.375Z,71.10
2022-08-18T01:14:20.164Z,71.00
2022-08-18T01:17:08.121Z,71.20
2022-08-18T01:19:55.257Z,71.20
2022-08-18T01:22:29.184Z,71.20
2022-08-18T01:25:19.061Z,71.30
2022-08-18T01:27:46.037Z,71.30
2022-08-18T01:30:18.310Z,71.20
2022-08-18T01:32:48.240Z,71.30
2022-08-18T01:35:18.846Z,71.20
2022-08-18T01:37:45.745Z,71.10
2022-08-18T01:41:24.378Z,71.20
2022-08-18T01:43:05.141Z,71.20
2022-08-18T01:45:33.513Z,71.10
2022-08-18T01:48:00.947Z,71.30
2022-08-18T01:50:28.167Z,71.20
2022-08-18T01:52:55.057Z,71.40
2022-08-18T01:55:22.335Z,71.40
2022-08-18T01:57:49.618Z,71.40
2022-08-18T02:00:19.058Z,71.30
2022-08-18T02:02:58.671Z,71.30
2022-08-18T02:05:39.937Z,71.30
2022-08-18T02:08:07.891Z,71.20
2022-08-18T02:10:35.297Z,71.50
2022-08-18T02:13:02.219Z,71.60
2022-08-18T02:15:29.168Z,71.60
2022-08-18T02:17:56.064Z,71.70
2022-08-18T02:20:23.193Z,71.70
2022-08-18T02:22:51.324Z,71.70
2022-08-18T02:25:19.453Z,71.80
2022-08-18T02:27:46.967Z,71.90
2022-08-18T02:30:18.471Z,71.90
2022-08-18T02:32:45.791Z,72.00
2022-08-18T02:35:12.818Z,72.00
2022-08-18T02:37:42.752Z,72.10
2022-08-18T02:40:15.336Z,72.00
2022-08-18T02:42:44.630Z,72.10
2022-08-18T02:45:13.267Z,72.10
2022-08-18T02:47:40.849Z,72.20
2022-08-18T02:50:10.978Z,72.20
2022-08-18T02:52:40.370Z,72.10
2022-08-18T02:55:09.006Z,71.90
2022-08-18T02:57:36.676Z,71.90
2022-08-18T03:00:05.153Z,72.00
2022-08-18T03:02:32.341Z,72.00
2022-08-18T03:04:59.292Z,72.10
2022-08-18T03:07:26.157Z,72.10
2022-08-18T03:09:53.101Z,72.10
2022-08-18T03:12:20.122Z,72.20
2022-08-18T03:14:47.059Z,72.20
2022-08-18T03:17:14.988Z,72.30
2022-08-18T03:19:44.987Z,72.30
2022-08-18T03:22:24.391Z,72.30
2022-08-18T03:24:55.882Z,72.40
2022-08-18T03:27:22.751Z,72.40
2022-08-18T03:29:50.657Z,72.40
2022-08-18T03:32:18.249Z,72.50
2022-08-18T03:34:45.134Z,72.60
2022-08-18T03:37:11.999Z,72.50
2022-08-18T03:39:40.293Z,72.40
2022-08-18T03:42:07.599Z,72.40
2022-08-18T03:44:37.365Z,72.50
2022-08-18T03:47:10.845Z,72.50
2022-08-18T03:49:38.663Z,72.60
2022-08-18T03:52:09.918Z,72.60
2022-08-18T03:54:38.888Z,72.60
2022-08-18T03:57:09.328Z,72.60
2022-08-18T03:59:36.247Z,72.50
2022-08-18T04:02:05.475Z,72.60
2022-08-18T04:04:32.424Z,72.70
2022-08-18T04:07:10.568Z,72.70
2022-08-18T04:09:38.619Z,72.70
2022-08-18T04:12:17.016Z,72.80
2022-08-18T04:14:49.185Z,72.90
2022-08-18T04:17:25.304Z,73.00
2022-08-18T04:19:56.785Z,73.00
2022-08-18T04:22:25.316Z,73.10
2022-08-18T04:24:52.813Z,73.40
2022-08-18T04:27:21.750Z,73.40
2022-08-18T04:29:48.892Z,73.50
2022-08-18T04:32:15.922Z,73.50
2022-08-18T04:34:42.799Z,73.50
2022-08-18T04:37:10.054Z,73.50
2022-08-18T04:39:37.808Z,73.50
2022-08-18T04:42:05.912Z,73.50
2022-08-18T04:44:33.667Z,73.50
2022-08-18T04:47:01.624Z,73.50
2022-08-18T04:49:28.657Z,73.40
2022-08-18T04:52:27.064Z,73.50
2022-08-18T04:55:02.918Z,73.30
2022-08-18T04:57:34.051Z,73.40
2022-08-18T05:00:06.023Z,73.60
2022-08-18T05:02:33.573Z,73.70
2022-08-18T05:05:03.063Z,72.50
2022-08-18T05:07:30.421Z,73.80
2022-08-18T05:09:57.358Z,73.80
2022-08-18T05:12:26.287Z,73.90
2022-08-18T05:14:57.323Z,73.90
2022-08-18T05:17:29.116Z,73.90
2022-08-18T05:19:57.554Z,72.60
2022-08-18T05:22:28.630Z,73.90
2022-08-18T05:24:58.443Z,73.70
2022-08-18T05:27:25.428Z,73.70
2022-08-18T05:29:52.274Z,73.70
2022-08-18T05:32:41.240Z,73.60
2022-08-18T05:35:20.179Z,73.60
2022-08-18T05:38:08.035Z,72.40
2022-08-18T05:40:35.850Z,71.90
2022-08-18T05:43:06.202Z,73.50
2022-08-18T05:45:34.733Z,73.40
2022-08-18T05:48:01.924Z,73.50
2022-08-18T05:50:33.746Z,73.40
2022-08-18T05:53:16.307Z,72.80
2022-08-18T05:56:24.415Z,70.30
2022-08-18T05:58:55.735Z,69.90
2022-08-18T06:01:39.556Z,71.90
2022-08-18T06:04:26.143Z,71.80
2022-08-18T06:06:57.347Z,71.40
2022-08-18T06:09:43.514Z,71.70
2022-08-18T06:12:55.905Z,69.90
2022-08-18T06:15:32.523Z,70.60
2022-08-18T06:18:29.805Z,69.80
2022-08-18T06:21:20.935Z,70.60
2022-08-18T06:24:15.559Z,71.00
2022-08-18T06:27:12.076Z,69.50
2022-08-18T06:29:42.035Z,70.50
2022-08-18T06:32:23.560Z,70.40
2022-08-18T06:35:18.270Z,69.10
2022-08-18T06:38:38.928Z,70.00
2022-08-18T06:41:42.191Z,67.60
2022-08-18T06:44:33.128Z,68.50
2022-08-18T06:47:37.361Z,69.90
2022-08-18T06:50:06.840Z,68.50
2022-08-18T06:52:51.136Z,70.40
2022-08-18T06:55:31.725Z,68.90
2022-08-18T06:58:27.176Z,69.70
2022-08-18T07:00:55.973Z,68.70
2022-08-18T07:03:41.319Z,69.90
2022-08-18T07:06:29.118Z,69.10
2022-08-18T07:09:25.350Z,67.20
2022-08-18T07:12:08.306Z,67.20
2022-08-18T07:14:52.807Z,66.60
2022-08-18T07:17:42.816Z,66.00
2022-08-18T07:20:25.137Z,67.90
2022-08-18T07:23:00.865Z,66.90
2022-08-18T07:25:51.661Z,67.60
2022-08-18T07:28:36.761Z,67.30
2022-08-18T07:31:35.373Z,66.90
2022-08-18T07:34:25.929Z,67.00
2022-08-18T07:37:50.330Z,67.50
2022-08-18T07:40:32.538Z,65.40
2022-08-18T07:43:09.106Z,65.40
2022-08-18T07:45:45.459Z,66.80
2022-08-18T07:48:38.476Z,65.50
2022-08-18T07:51:43.475Z,66.90
2022-08-18T07:54:51.054Z,64.10
2022-08-18T07:57:55.975Z,62.80
2022-08-18T08:00:57.497Z,62.40
2022-08-18T08:03:43.343Z,64.50
2022-08-18T08:07:22.519Z,63.10
2022-08-18T08:09:52.890Z,63.00
2022-08-18T08:12:51.244Z,63.50
2022-08-18T08:16:04.084Z,62.80
2022-08-18T08:19:56.791Z,62.30
2022-08-18T08:22:39.541Z,63.60
2022-08-18T08:25:42.256Z,65.90
2022-08-18T08:28:36.969Z,64.40
2022-08-18T08:31:36.855Z,63.60
2022-08-18T08:34:27.149Z,64.30
2022-08-18T08:37:06.298Z,63.70
2022-08-18T08:39:47.388Z,60.40
2022-08-18T08:42:40.451Z,58.90
2022-08-18T08:45:26.751Z,58.50
2022-08-18T08:48:28.246Z,60.10
2022-08-18T08:51:12.555Z,57.90
2022-08-18T08:53:49.913Z,60.30
2022-08-18T08:56:21.633Z,58.70
2022-08-18T08:59:01.752Z,61.40
2022-08-18T09:02:00.056Z,59.00
2022-08-18T09:05:07.653Z,57.40
2022-08-18T09:07:38.434Z,56.90
2022-08-18T09:10:59.317Z,58.40
2022-08-18T09:13:44.117Z,56.10
2022-08-18T09:16:54.470Z,54.70
2022-08-18T09:19:52.170Z,54.10
2022-08-18T09:22:31.274Z,58.50
2022-08-18T09:24:59.816Z,58.10
2022-08-18T09:28:09.352Z,56.60
2022-08-18T09:30:47.485Z,51.90
2022-08-18T09:33:31.623Z,50.90
2022-08-18T09:36:38.908Z,54.70
2022-08-18T09:39:54.777Z,50.90
2022-08-18T09:43:01.211Z,49.90
2022-08-18T09:48:36.790Z,47.90
2022-08-18T09:51:18.215Z,49.70
2022-08-18T09:53:56.714Z,48.60
2022-08-18T09:56:54.295Z,47.80
2022-08-18T09:59:34.337Z,46.60
2022-08-18T10:02:11.602Z,43.70
2022-08-18T10:04:53.741Z,47.50
2022-08-18T10:07:30.588Z,47.20
2022-08-18T10:14:25.783Z,44.70
2022-08-18T10:17:27.807Z,44.00
2022-08-18T10:20:31.393Z,42.40
2022-08-18T10:22:58.526Z,44.80
2022-08-18T10:25:42.180Z,44.10
2022-08-18T10:28:34.436Z,40.40
2022-08-18T10:31:10.034Z,42.30
2022-08-18T10:34:19.303Z,40.30
2022-08-18T10:36:59.122Z,41.70
2022-08-18T10:39:41.737Z,42.90
2022-08-18T10:42:34.316Z,46.00
2022-08-18T10:45:24.760Z,43.20
2022-08-18T10:48:24.451Z,43.50
2022-08-18T10:50:59.892Z,40.40
2022-08-18T10:54:21.356Z,41.20
2022-08-18T10:57:00.701Z,37.80
2022-08-18T10:59:47.817Z,39.60
2022-08-18T11:03:30.152Z,40.60
2022-08-18T11:05:47.223Z,38.10
2022-08-18T11:08:20.538Z,42.10
2022-08-18T11:14:15.008Z,42.40
2022-08-18T11:17:01.004Z,44.10
2022-08-18T11:19:28.532Z,40.80
2022-08-18T11:21:57.180Z,42.40
2022-08-18T11:24:28.638Z,42.10
2022-08-18T11:27:03.486Z,41.60
2022-08-18T11:29:40.457Z,41.10
2022-08-18T11:32:31.478Z,41.00
2022-08-18T11:34:59.508Z,41.50
2022-08-18T11:41:10.443Z,41.70
2022-08-18T11:43:42.319Z,43.60
2022-08-18T11:46:24.082Z,43.60
2022-08-18T11:48:56.214Z,42.00
2022-08-18T11:51:32.237Z,43.50
2022-08-18T11:54:12.765Z,42.20
2022-08-18T11:56:39.831Z,42.10
2022-08-18T11:59:52.982Z,43.40
2022-08-18T12:02:22.743Z,43.20
2022-08-18T12:04:56.937Z,43.40
2022-08-18T12:07:35.108Z,43.60
2022-08-18T12:10:26.051Z,42.20
2022-08-18T12:12:57.537Z,42.40
2022-08-18T12:15:43.693Z,43.90
2022-08-18T12:18:26.195Z,42.50
2022-08-18T12:21:02.695Z,44.10
2022-08-18T12:23:38.380Z,44.40
2022-08-18T12:26:07.195Z,44.30
2022-08-18T12:28:54.125Z,44.50
2022-08-18T12:31:28.911Z,44.40
2022-08-18T12:34:08.969Z,44.10
2022-08-18T12:36:40.662Z,44.30
2022-08-18T12:39:07.824Z,44.10
2022-08-18T12:41:36.498Z,44.00
2022-08-18T12:44:04.020Z,43.90
2022-08-18T12:46:37.241Z,44.00
2022-08-18T12:49:17.623Z,43.60
2022-08-18T12:51:45.659Z,42.90
2022-08-18T12:54:18.737Z,43.90
2022-08-18T12:56:51.568Z,43.90
2022-08-18T12:59:18.980Z,44.00
2022-08-18T13:01:47.148Z,44.10
2022-08-18T13:04:15.614Z,44.00
2022-08-18T13:07:00.577Z,44.10
2022-08-18T13:09:42.799Z,42.70
2022-08-18T13:12:19.535Z,43.80
2022-08-18T13:14:47.611Z,44.40
2022-08-18T13:17:29.627Z,44.30
2022-08-18T13:20:04.995Z,44.20
2022-08-18T13:22:33.205Z,43.90
2022-08-18T13:25:07.286Z,43.90
2022-08-18T13:27:37.585Z,43.00
2022-08-18T13:30:29.872Z,44.00
2022-08-18T13:33:33.989Z,42.40
2022-08-18T13:35:54.384Z,43.60
2022-08-18T13:38:27.114Z,43.70
2022-08-18T13:40:59.262Z,43.70
2022-08-18T13:43:39.243Z,43.70
2022-08-18T13:46:09.177Z,42.50
2022-08-18T13:48:37.883Z,44.10
2022-08-18T13:51:08.433Z,44.00
2022-08-18T13:53:50.536Z,44.10
2022-08-18T13:56:19.708Z,44.00
2022-08-18T13:58:53.668Z,44.40
2022-08-18T14:01:44.249Z,44.00
2022-08-18T14:04:12.431Z,44.70
2022-08-18T14:06:46.848Z,44.30
2022-08-18T14:09:19.848Z,44.40
2022-08-18T14:11:54.965Z,44.40
2022-08-18T14:14:22.165Z,44.40
2022-08-18T14:16:49.053Z,44.40
2022-08-18T14:19:36.485Z,44.60
2022-08-18T14:22:25.966Z,44.50
2022-08-18T14:25:12.307Z,44.60
2022-08-18T14:27:39.438Z,44.50
2022-08-18T14:30:11.887Z,44.40
2022-08-18T14:32:48.922Z,44.00
2022-08-18T14:35:34.263Z,44.40
2022-08-18T14:38:09.140Z,44.40
2022-08-18T14:40:41.534Z,44.60
2022-08-18T14:43:12.120Z,44.60
2022-08-18T14:45:48.612Z,45.00
2022-08-18T14:48:21.549Z,45.10
2022-08-18T14:50:55.372Z,45.10
2022-08-18T14:53:27.731Z,44.60
2022-08-18T14:55:56.347Z,44.80
2022-08-18T14:58:32.015Z,45.10
2022-08-18T15:01:08.294Z,44.80
2022-08-18T15:03:36.977Z,44.70
2022-08-18T15:06:06.518Z,45.10
2022-08-18T15:08:37.341Z,44.90
2022-08-18T15:11:11.334Z,44.80
2022-08-18T15:13:43.419Z,45.00
2022-08-18T15:16:14.580Z,45.10
2022-08-18T15:18:46.574Z,45.20
2022-08-18T15:21:35.484Z,45.50
2022-08-18T15:24:26.260Z,45.40
2022-08-18T15:26:58.164Z,45.40
2022-08-18T15:29:33.720Z,45.60
2022-08-18T15:32:10.111Z,45.50
2022-08-18T15:34:46.421Z,45.60
2022-08-18T15:37:19.524Z,45.90
2022-08-18T15:39:51.735Z,45.90
2022-08-18T15:42:24.104Z,46.10
2022-08-18T15:44:53.591Z,46.20
2022-08-18T15:47:22.228Z,46.30
2022-08-18T15:49:52.384Z,46.40
2022-08-18T15:52:24.537Z,46.60
2022-08-18T15:54:57.008Z,46.70
2022-08-18T15:57:39.548Z,46.60
2022-08-18T16:00:12.074Z,46.80
2022-08-18T16:02:44.719Z,46.80
2022-08-18T16:05:15.743Z,46.70
2022-08-18T16:07:47.580Z,46.70
2022-08-18T16:10:17.568Z,46.80
2022-08-18T16:12:46.482Z,46.90
2022-08-18T16:15:20.043Z,47.10
2022-08-18T16:17:53.448Z,46.80
2022-08-18T16:20:23.936Z,47.40
2022-08-18T16:22:53.058Z,47.50
2022-08-18T16:25:20.873Z,47.60
2022-08-18T16:27:48.544Z,47.70
2022-08-18T16:30:25.348Z,48.20
2022-08-18T16:32:52.911Z,48.20
2022-08-18T16:35:22.072Z,48.70
2022-08-18T16:37:49.846Z,48.90
2022-08-18T16:40:19.224Z,48.80
2022-08-18T16:42:47.509Z,49.20
2022-08-18T16:45:21.401Z,49.20
2022-08-18T16:47:48.531Z,49.20
2022-08-18T16:50:18.220Z,49.10
2022-08-18T16:52:45.115Z,49.20
2022-08-18T16:55:13.653Z,49.30
2022-08-18T16:58:02.048Z,49.00
2022-08-18T17:00:55.097Z,49.00
2022-08-18T17:03:42.723Z,49.30
2022-08-18T17:06:15.841Z,49.30
2022-08-18T17:08:44.788Z,49.20
2022-08-18T17:11:16.662Z,49.40
2022-08-18T17:13:45.908Z,49.40
2022-08-18T17:16:13.934Z,49.40
2022-08-18T17:18:42.551Z,49.40
2022-08-18T17:21:15.356Z,49.30
2022-08-18T17:23:42.633Z,49.40
2022-08-18T17:26:22.133Z,49.40
2022-08-18T17:29:02.865Z,49.20
2022-08-18T17:31:30.110Z,49.50
2022-08-18T17:34:08.289Z,49.70
2022-08-18T17:36:53.887Z,49.80
2022-08-18T17:39:38.082Z,51.10
2022-08-18T17:42:23.753Z,51.70
2022-08-18T17:44:52.457Z,51.10
2022-08-18T17:47:30.267Z,52.30
2022-08-18T17:50:32.079Z,54.40
2022-08-18T17:53:05.749Z,54.00
2022-08-18T17:55:52.585Z,55.50
2022-08-18T17:58:49.484Z,58.60
2022-08-18T18:01:17.211Z,60.00
2022-08-18T18:03:44.735Z,60.60
2022-08-18T18:06:29.834Z,62.50
2022-08-18T18:09:06.955Z,64.00
2022-08-18T18:11:42.792Z,64.90
2022-08-18T18:14:33.318Z,65.30
2022-08-18T18:17:25.901Z,66.30
2022-08-18T18:20:32.911Z,66.80
2022-08-18T18:23:22.688Z,68.20
2022-08-18T18:25:50.594Z,69.00
2022-08-18T18:28:33.202Z,69.60
2022-08-18T18:31:25.063Z,70.80
2022-08-18T18:34:07.328Z,71.50
2022-08-18T18:36:50.961Z,71.70
2022-08-18T18:39:35.943Z,71.90
2022-08-18T18:42:18.006Z,72.60
2022-08-18T18:45:05.781Z,72.60
2022-08-18T18:47:57.753Z,72.50
2022-08-18T18:50:53.121Z,72.90
2022-08-18T18:53:40.761Z,73.30
2022-08-18T18:56:36.255Z,73.30
2022-08-18T18:59:35.366Z,72.90
2022-08-18T19:02:05.446Z,72.50
2022-08-18T19:05:14.993Z,72.90
2022-08-18T19:08:19.130Z,73.00
2022-08-18T19:11:35.410Z,72.40
2022-08-18T19:14:26.627Z,72.90
2022-08-18T19:17:23.485Z,73.60
2022-08-18T19:20:08.932Z,74.10
2022-08-18T19:22:54.548Z,74.10
2022-08-18T19:25:31.205Z,73.70
2022-08-18T19:28:30.482Z,74.30
2022-08-18T19:31:05.476Z,74.10
2022-08-18T19:33:46.819Z,74.30
2022-08-18T19:37:01.578Z,73.10
2022-08-18T19:39:39.433Z,73.40
2022-08-18T19:43:26.516Z,73.60
2022-08-18T19:46:16.269Z,73.20
2022-08-18T19:49:08.958Z,73.40
2022-08-18T19:51:41.769Z,72.50
2022-08-18T19:54:31.001Z,74.10
2022-08-18T19:57:12.656Z,73.90
2022-08-18T20:00:08.447Z,73.40
2022-08-18T20:03:06.360Z,73.50
2022-08-18T20:05:53.240Z,72.50
2022-08-18T20:08:39.096Z,73.20
2022-08-18T20:11:44.634Z,72.60
2022-08-18T20:14:16.803Z,73.10
2022-08-18T20:17:20.138Z,74.50
2022-08-18T20:20:13.067Z,73.40
2022-08-18T20:22:44.418Z,74.10
2022-08-18T20:25:17.580Z,75.20
2022-08-18T20:28:10.515Z,75.10
2022-08-18T20:31:12.649Z,75.70
2022-08-18T20:33:46.738Z,75.60
2022-08-18T20:36:30.241Z,76.00
2022-08-18T20:38:59.956Z,75.90
2022-08-18T20:41:39.150Z,76.60
2022-08-18T20:44:29.891Z,76.90
2022-08-18T20:47:40.140Z,76.80
2022-08-18T20:50:42.138Z,76.80
2022-08-18T20:53:36.182Z,76.80
2022-08-18T20:56:43.273Z,77.50
2022-08-18T20:59:30.085Z,77.40
2022-08-18T21:02:02.007Z,77.90
2022-08-18T21:04:48.557Z,78.20
2022-08-18T21:07:19.326Z,77.80
2022-08-18T21:10:28.753Z,78.40
2022-08-18T21:13:04.392Z,77.50
2022-08-18T21:15:38.115Z,77.90
2022-08-18T21:18:19.274Z,77.80
2022-08-18T21:20:52.752Z,78.10
2022-08-18T21:23:41.286Z,78.00
2022-08-18T21:26:16.359Z,77.00
2022-08-18T21:28:52.790Z,77.70
2022-08-18T21:31:43.566Z,78.00
2022-08-18T21:34:33.290Z,78.10
2022-08-18T21:37:08.512Z,77.80
2022-08-18T21:39:56.588Z,78.10
2022-08-18T21:42:27.910Z,78.20
2022-08-18T21:45:00.733Z,78.20
2022-08-18T21:47:34.316Z,77.90
2022-08-18T21:50:15.979Z,78.30
2022-08-18T21:53:01.907Z,77.50
2022-08-18T21:55:47.274Z,77.60
2022-08-18T21:58:15.607Z,77.90
2022-08-18T22:01:13.747Z,78.50
2022-08-18T22:04:02.950Z,77.60
2022-08-18T22:06:40.813Z,77.90
2022-08-18T22:09:29.006Z,78.00
2022-08-18T22:12:49.229Z,78.50
2022-08-18T22:15:21.894Z,77.50
2022-08-18T22:18:08.044Z,78.40
2022-08-18T22:20:42.890Z,78.50
2022-08-18T22:23:33.930Z,78.50
2022-08-18T22:26:09.259Z,78.60
2022-08-18T22:29:11.584Z,78.30
2022-08-18T22:31:46.513Z,78.30
2022-08-18T22:34:17.517Z,78.80
2022-08-18T22:37:21.030Z,78.90
2022-08-18T22:40:00.359Z,77.80
2022-08-18T22:42:32.989Z,78.60
2022-08-18T22:45:05.465Z,78.80
2022-08-18T22:47:34.139Z,78.80
2022-08-18T22:50:11.584Z,78.90
2022-08-18T22:52:46.447Z,78.90
2022-08-18T22:55:21.886Z,78.80
2022-08-18T22:57:53.052Z,79.10
2022-08-18T23:00:25.274Z,79.20
2022-08-18T23:02:53.669Z,79.20
2022-08-18T23:05:21.711Z,79.20
2022-08-18T23:07:49.756Z,79.20
2022-08-18T23:10:17.886Z,79.20
2022-08-18T23:12:47.390Z,79.30
2022-08-18T23:15:17.722Z,79.30
2022-08-18T23:17:44.828Z,79.20
2022-08-18T23:20:19.215Z,79.20
2022-08-18T23:22:47.981Z,78.50
2022-08-18T23:25:16.261Z,79.10
2022-08-18T23:27:43.327Z,79.10
2022-08-18T23:30:11.402Z,79.10
2022-08-18T23:32:38.355Z,79.10
2022-08-18T23:35:05.724Z,79.10
2022-08-18T23:37:32.640Z,79.00
2022-08-18T23:39:59.889Z,79.10
2022-08-18T23:42:26.848Z,79.40
2022-08-18T23:44:53.727Z,79.50
2022-08-18T23:47:20.826Z,79.60
2022-08-18T23:49:48.185Z,79.40
2022-08-18T23:52:15.176Z,79.50
2022-08-18T23:54:42.062Z,79.60
2022-08-18T23:57:09.022Z,79.60
2022-08-18T23:59:36.573Z,79.80
